Time;durP1;ratioP1;P1;durP2;ratioP2;P2;SDS_P1;SDS_P2;PMS_P1;PMS_P2;Temp;Humidity;BMP_temperature;BMP_pressure;BME280_temperature;BME280_humidity;BME280_pressure;Samples;Min_cycle;Max_cycle;Signal;HPM_P1;HPM_P2
2022/12/18 00:02:21;;;;;;;107.00;36.97;;;-4.70;99.90;;;;;;6080484;23;20018;-84
2022/12/18 00:04:47;;;;;;;102.50;36.27;;;-4.90;99.90;;;;;;6082368;23;20018;-84
2022/12/18 00:07:25;;;;;;;;;;;;;;;;;;;;;
2022/12/18 00:10:03;;;;;;;98.87;34.53;;;-3.30;99.90;;;;;;6071539;23;20023;-84
2022/12/18 00:12:38;;;;;;;105.10;36.17;;;-4.60;99.90;;;;;;6070657;23;20388;-84
2022/12/18 00:15:05;;;;;;;95.63;34.43;;;-4.90;99.90;;;;;;6071198;23;20046;-84
2022/12/18 00:17:43;;;;;;;105.53;35.23;;;-4.70;99.90;;;;;;6070900;23;20022;-85
2022/12/18 00:20:25;;;;;;;104.27;34.57;;;-3.50;99.90;;;;;;6095799;23;20022;-85
2022/12/18 00:23:08;;;;;;;104.73;34.77;;;-3.60;99.90;;;;;;6071418;23;20018;-85
2022/12/18 00:26:25;;;;;;;102.15;33.97;;;-5.00;99.90;;;;;;6071023;23;20010;-85
2022/12/18 00:32:57;;;;;;;111.30;37.30;;;-5.10;99.90;;;;;;5978943;24;20140;-84
2022/12/18 00:35:23;;;;;;;104.47;35.50;;;-5.20;99.90;;;;;;5956671;24;20024;-85
2022/12/18 00:37:49;;;;;;;107.50;35.67;;;-3.80;99.90;;;;;;6083176;23;20025;-85
2022/12/18 00:40:21;;;;;;;105.07;36.07;;;-5.40;99.90;;;;;;6160112;23;20014;-84
2022/12/18 00:42:55;;;;;;;110.90;36.10;;;-5.40;99.90;;;;;;6129460;23;20024;-84
2022/12/18 00:45:46;;;;;;;114.10;37.90;;;-5.00;99.90;;;;;;6129439;23;20508;-85
2022/12/18 00:48:14;;;;;;;122.13;37.67;;;-4.70;99.90;;;;;;6154856;23;20009;-84
2022/12/18 00:50:48;;;;;;;119.77;37.73;;;-5.00;99.90;;;;;;6128848;23;20018;-84
2022/12/18 00:53:18;;;;;;;115.23;39.17;;;-5.20;99.90;;;;;;6154427;23;20014;-84
2022/12/18 00:56:08;;;;;;;125.37;39.27;;;-4.90;99.90;;;;;;6155628;23;20072;-85
2022/12/18 01:05:49;;;;;;;117.77;36.67;;;-6.20;99.90;;;;;;6095563;23;20112;-85
2022/12/18 01:08:30;;;;;;;121.20;37.20;;;-3.50;99.90;;;;;;6068821;23;20101;-84
2022/12/18 01:14:23;;;;;;;126.32;39.10;;;-5.00;99.90;;;;;;6024199;23;20023;-85
2022/12/18 01:17:51;;;;;;;128.63;39.57;;;-5.70;99.90;;;;;;6042192;23;20019;-84
2022/12/18 01:20:20;;;;;;;131.00;38.03;;;-6.30;99.90;;;;;;6041361;23;20023;-85
2022/12/18 01:23:07;;;;;;;128.37;40.07;;;-5.60;99.90;;;;;;6068899;23;20021;-84
2022/12/18 01:25:54;;;;;;;142.73;41.33;;;-4.70;99.90;;;;;;6088480;23;20026;-85
2022/12/18 01:28:19;;;;;;;123.73;39.57;;;-5.50;99.90;;;;;;6093698;23;20089;-84
2022/12/18 01:30:45;;;;;;;130.15;40.20;;;-5.80;99.90;;;;;;6091937;23;20097;-84
2022/12/18 01:33:14;;;;;;;110.73;37.53;;;-6.00;99.90;;;;;;6099592;23;20073;-84
2022/12/18 01:36:04;;;;;;;107.47;36.80;;;-6.40;99.90;;;;;;6098533;23;20346;-84
2022/12/18 01:38:36;;;;;;;105.37;35.30;;;-6.50;99.90;;;;;;6126025;23;20029;-85
2022/12/18 01:41:05;;;;;;;99.93;34.63;;;-6.20;99.90;;;;;;6125281;23;20466;-84
2022/12/18 01:43:57;;;;;;;101.87;34.87;;;-6.30;99.90;;;;;;6124880;23;20021;-84
2022/12/18 01:46:42;;;;;;;98.00;34.53;;;-5.00;99.90;;;;;;6099296;23;20093;-84
2022/12/18 01:49:14;;;;;;;92.00;32.47;;;-5.80;99.90;;;;;;6102755;23;20010;-85
2022/12/18 01:51:55;;;;;;;82.90;32.10;;;-5.80;99.90;;;;;;6098643;23;20049;-84
2022/12/18 01:54:20;;;;;;;82.87;32.20;;;-8.30;99.90;;;;;;6100034;23;20382;-84
2022/12/18 01:57:52;;;;;;;81.57;30.47;;;-6.80;99.90;;;;;;6075440;23;20024;-84
2022/12/18 02:01:08;;;;;;;85.40;30.27;;;-6.90;99.90;;;;;;6097703;23;20029;-84
2022/12/18 02:03:34;;;;;;;83.57;30.63;;;-5.30;99.90;;;;;;6096284;23;20289;-85
2022/12/18 02:06:33;;;;;;;77.33;29.03;;;-6.80;99.90;;;;;;6093456;23;20018;-84
2022/12/18 02:09:37;;;;;;;86.10;31.80;;;-5.70;99.90;;;;;;6072763;23;20025;-84
2022/12/18 02:13:01;;;;;;;81.03;29.15;;;-7.10;99.90;;;;;;6098147;23;20029;-85
2022/12/18 02:16:07;;;;;;;77.63;30.00;;;-5.90;99.90;;;;;;5985456;23;20457;-84
2022/12/18 02:18:47;;;;;;;76.13;28.90;;;-6.80;99.90;;;;;;6096738;23;20030;-84
2022/12/18 02:22:30;;;;;;;77.27;29.83;;;-7.20;99.90;;;;;;6071683;23;20447;-84
2022/12/18 02:25:39;;;;;;;71.28;28.35;;;-6.10;99.90;;;;;;6071303;23;20025;-84
2022/12/18 02:28:09;;;;;;;79.40;29.33;;;-7.10;99.90;;;;;;6072165;23;20489;-84
2022/12/18 02:31:18;;;;;;;68.50;26.73;;;-5.60;99.90;;;;;;6055124;23;20510;-84
2022/12/18 02:33:48;;;;;;;76.70;27.57;;;-7.80;99.90;;;;;;6097283;23;20015;-84
2022/12/18 02:36:28;;;;;;;68.77;27.10;;;-7.50;99.90;;;;;;6097477;23;20094;-84
2022/12/18 02:39:02;;;;;;;74.43;27.93;;;-7.20;99.90;;;;;;6070790;23;20010;-84
2022/12/18 02:41:56;;;;;;;77.20;27.60;;;-5.80;99.90;;;;;;6092377;23;20022;-84
2022/12/18 02:44:24;;;;;;;73.83;27.00;;;-5.90;99.90;;;;;;6097266;23;20018;-84
2022/12/18 02:47:12;;;;;;;74.30;27.10;;;-6.50;99.90;;;;;;6096789;23;20025;-84
2022/12/18 02:50:18;;;;;;;74.17;28.30;;;-7.40;99.90;;;;;;6105301;23;20074;-85
2022/12/18 03:00:28;;;;;;;65.60;26.60;;;-5.20;99.90;;;;;;6133945;23;20029;-84
2022/12/18 03:03:34;;;;;;;74.90;27.05;;;-6.10;99.90;;;;;;6147573;23;20347;-83
2022/12/18 03:06:49;;;;;;;73.40;27.70;;;-7.80;99.90;;;;;;6099941;23;20324;-84
2022/12/18 03:12:53;;;;;;;67.20;25.93;;;-8.10;99.90;;;;;;6100060;23;20030;-84
2022/12/18 03:15:59;;;;;;;71.63;28.03;;;-7.70;99.90;;;;;;6099411;23;20408;-84
2022/12/18 03:18:54;;;;;;;66.23;27.63;;;-7.80;99.90;;;;;;5980839;24;20022;-84
2022/12/18 03:22:05;;;;;;;72.03;26.33;;;-6.50;99.90;;;;;;5979197;24;20092;-85
2022/12/18 03:27:47;;;;;;;75.90;25.77;;;-7.70;99.90;;;;;;5902352;24;20032;-84
2022/12/18 03:30:18;;;;;;;65.00;25.80;;;-6.00;99.90;;;;;;6101222;23;20029;-85
2022/12/18 03:33:38;;;;;;;68.07;26.23;;;-5.40;99.90;;;;;;6095359;23;20019;-84
2022/12/18 03:36:09;;;;;;;61.83;24.97;;;-6.40;99.90;;;;;;5956266;24;20017;-85
2022/12/18 03:38:44;;;;;;;62.27;24.67;;;-8.20;99.90;;;;;;5957568;24;20128;-84
2022/12/18 03:41:40;;;;;;;59.03;25.40;;;-7.90;99.90;;;;;;5980011;23;20020;-84
2022/12/18 03:54:12;;;;;;;58.53;24.43;;;-8.60;99.90;;;;;;6099995;23;20022;-85
2022/12/18 04:03:26;;;;;;;53.07;23.27;;;-8.40;99.90;;;;;;6095698;23;20023;-86
2022/12/18 04:06:15;;;;;;;56.63;22.77;;;-6.10;99.90;;;;;;6094968;23;20070;-85
2022/12/18 04:08:42;;;;;;;55.50;23.10;;;-8.20;99.90;;;;;;6095250;23;20026;-85
2022/12/18 04:11:25;;;;;;;59.07;23.70;;;-7.00;99.90;;;;;;6096387;23;20014;-85
2022/12/18 04:14:13;;;;;;;57.47;23.85;;;-7.80;99.90;;;;;;6095380;23;20022;-85
2022/12/18 04:16:45;;;;;;;52.47;22.30;;;-8.30;99.90;;;;;;6094799;23;20089;-85
2022/12/18 04:19:10;;;;;;;51.03;21.57;;;-8.20;99.90;;;;;;6093837;23;20014;-85
2022/12/18 04:21:42;;;;;;;55.83;23.60;;;-6.90;99.90;;;;;;6094924;23;20499;-85
2022/12/18 04:24:30;;;;;;;56.27;23.93;;;-8.20;99.90;;;;;;6094090;23;20036;-85
2022/12/18 04:27:11;;;;;;;53.63;23.00;;;-8.40;99.90;;;;;;6095858;23;20018;-85
2022/12/18 04:29:43;;;;;;;56.07;22.87;;;-7.50;99.90;;;;;;6094712;23;20026;-84
2022/12/18 04:32:37;;;;;;;49.93;22.10;;;-6.30;99.90;;;;;;6094793;23;20017;-85
2022/12/18 04:35:21;;;;;;;52.80;22.97;;;-8.10;99.90;;;;;;6116488;23;20018;-85
2022/12/18 04:38:28;;;;;;;55.65;22.30;;;-7.80;99.90;;;;;;6126277;23;20481;-85
2022/12/18 04:40:54;;;;;;;55.07;22.77;;;-6.20;99.90;;;;;;6077340;23;20088;-85
2022/12/18 04:43:45;;;;;;;50.97;21.87;;;-8.60;99.90;;;;;;6099883;23;20022;-85
2022/12/18 04:46:14;;;;;;;48.87;21.27;;;-8.10;99.90;;;;;;6124249;23;20025;-85
2022/12/18 04:49:10;;;;;;;51.13;21.50;;;-8.30;99.90;;;;;;6099375;23;20021;-85
2022/12/18 04:51:57;;;;;;;48.57;21.70;;;-6.70;99.90;;;;;;6099687;23;20021;-85
2022/12/18 04:54:41;;;;;;;49.87;22.67;;;-8.30;99.90;;;;;;6123021;23;20018;-85
2022/12/18 04:57:10;;;;;;;50.22;22.33;;;-8.10;99.90;;;;;;6125985;23;20127;-85
2022/12/18 04:59:35;;;;;;;49.53;21.57;;;-8.30;99.90;;;;;;6098854;23;20443;-85
2022/12/18 05:02:10;;;;;;;53.00;22.33;;;-8.40;99.90;;;;;;6099027;23;20089;-85
2022/12/18 05:04:48;;;;;;;49.37;21.23;;;-8.50;99.90;;;;;;6099794;23;20048;-85
2022/12/18 05:07:36;;;;;;;51.63;21.80;;;-8.30;99.90;;;;;;6121475;23;20061;-85
2022/12/18 05:10:20;;;;;;;52.40;22.63;;;-8.00;99.90;;;;;;6099921;23;20450;-85
2022/12/18 05:13:04;;;;;;;47.33;20.57;;;-8.50;99.90;;;;;;6099873;23;20022;-85
2022/12/18 05:15:31;;;;;;;46.90;20.10;;;-8.60;99.90;;;;;;6101081;23;20101;-86
2022/12/18 05:17:57;;;;;;;52.97;22.20;;;-8.70;99.90;;;;;;6130108;23;20022;-85
2022/12/18 05:20:26;;;;;;;49.97;20.83;;;-8.20;99.90;;;;;;6124894;23;20014;-85
2022/12/18 05:22:58;;;;;;;50.90;21.37;;;-8.50;99.90;;;;;;6126041;23;20018;-85
2022/12/18 05:25:24;;;;;;;54.73;22.00;;;;;;;;;;6099565;23;20029;-85
2022/12/18 05:27:50;;;;;;;51.60;21.30;;;-9.50;99.90;;;;;;6099478;23;20312;-85
2022/12/18 05:30:33;;;;;;;50.25;21.48;;;-8.80;99.90;;;;;;6127418;23;20022;-86
2022/12/18 05:33:08;;;;;;;48.60;22.27;;;-8.80;99.90;;;;;;6101723;23;20022;-85
2022/12/18 05:35:34;;;;;;;48.07;21.73;;;-8.60;99.90;;;;;;6129789;23;20443;-85
2022/12/18 05:41:49;;;;;;;46.50;20.20;;;-7.20;99.90;;;;;;6110832;23;20461;-85
2022/12/18 05:44:19;;;;;;;47.77;21.57;;;-8.60;99.90;;;;;;6072473;23;20023;-85
2022/12/18 05:46:56;;;;;;;47.00;21.07;;;-8.80;99.90;;;;;;6072263;23;20015;-85
2022/12/18 05:49:31;;;;;;;44.73;20.33;;;-8.70;99.90;;;;;;6097208;23;20101;-86
2022/12/18 05:52:09;;;;;;;48.07;21.83;;;-8.60;99.90;;;;;;6072510;23;20061;-86
2022/12/18 05:54:38;;;;;;;49.80;21.60;;;-6.10;99.90;;;;;;6098425;23;20033;-85
2022/12/18 05:57:06;;;;;;;49.37;21.50;;;-8.60;99.90;;;;;;6071675;23;20026;-85
2022/12/18 05:59:32;;;;;;;47.13;20.97;;;-8.30;99.90;;;;;;6098026;23;20018;-86
2022/12/18 06:01:58;;;;;;;44.93;21.13;;;-7.80;99.90;;;;;;6072618;23;20033;-85
2022/12/18 06:04:26;;;;;;;42.00;21.83;;;-7.10;99.90;;;;;;6084373;23;20003;-86
2022/12/18 06:07:03;;;;;;;42.83;19.83;;;-8.70;99.90;;;;;;6092775;23;20006;-85
2022/12/18 06:15:57;;;;;;;46.20;21.40;;;-8.00;99.90;;;;;;6096267;23;20022;-85
2022/12/18 06:18:45;;;;;;;44.80;20.47;;;-8.80;99.90;;;;;;6076455;23;20027;-85
2022/12/18 06:21:29;;;;;;;45.80;20.93;;;-8.20;99.90;;;;;;6068271;23;20019;-85
2022/12/18 06:24:07;;;;;;;45.30;19.27;;;-8.70;99.90;;;;;;6068159;23;20019;-86
2022/12/18 06:26:39;;;;;;;41.87;19.83;;;-8.50;99.90;;;;;;6042778;23;20031;-86
2022/12/18 06:29:05;;;;;;;41.93;19.63;;;-8.30;99.90;;;;;;6068443;23;20037;-86
2022/12/18 06:32:34;;;;;;;42.60;19.80;;;-7.40;99.90;;;;;;6126089;23;20030;-86
2022/12/18 06:35:25;;;;;;;45.73;19.70;;;-8.00;99.90;;;;;;6100328;23;20076;-86
2022/12/18 06:37:52;;;;;;;42.70;20.77;;;-10.40;99.90;;;;;;6099558;23;20065;-86
2022/12/18 06:40:40;;;;;;;40.80;20.07;;;-8.50;99.90;;;;;;6126576;23;20459;-86
2022/12/18 06:43:06;;;;;;;45.57;20.97;;;-7.60;99.90;;;;;;6084241;23;20026;-86
2022/12/18 06:45:34;;;;;;;42.70;20.20;;;-8.00;99.90;;;;;;6064191;23;20460;-85
2022/12/18 06:48:06;;;;;;;42.07;20.40;;;-8.10;99.90;;;;;;6066907;23;20025;-85
2022/12/18 06:50:32;;;;;;;40.93;20.37;;;-9.00;99.90;;;;;;6066993;23;20026;-86
2022/12/18 06:52:57;;;;;;;45.93;20.03;;;-8.60;99.90;;;;;;6073196;23;20331;-86
2022/12/18 06:55:45;;;;;;;44.13;19.40;;;-7.40;99.90;;;;;;6099726;23;20382;-86
2022/12/18 06:58:33;;;;;;;40.53;19.37;;;-8.50;99.90;;;;;;6091480;23;20015;-85
2022/12/18 07:01:23;;;;;;;41.20;19.77;;;-9.10;99.90;;;;;;6075094;23;20560;-85
2022/12/18 07:04:11;;;;;;;39.93;19.17;;;-8.50;99.90;;;;;;6087128;23;20090;-86
2022/12/18 07:06:46;;;;;;;39.13;18.50;;;-7.10;99.90;;;;;;6066456;23;20490;-85
2022/12/18 07:10:05;;;;;;;41.43;19.20;;;-8.90;99.90;;;;;;6068698;23;20019;-86
2022/12/18 07:12:48;;;;;;;40.47;20.20;;;-9.10;99.90;;;;;;6066906;23;20018;-86
2022/12/18 07:15:26;;;;;;;41.28;18.08;;;-6.40;99.90;;;;;;6066574;23;20050;-85
2022/12/18 07:18:06;;;;;;;38.63;18.97;;;-7.10;99.90;;;;;;6071444;23;20459;-82
2022/12/18 07:20:31;;;;;;;38.10;18.17;;;-8.50;99.90;;;;;;6094515;23;20066;-83
2022/12/18 07:23:12;;;;;;;35.80;16.40;;;-7.60;99.90;;;;;;6095212;23;20462;-84
2022/12/18 07:25:44;;;;;;;36.33;17.17;;;-8.60;99.90;;;;;;6095484;23;20026;-81
2022/12/18 07:28:10;;;;;;;34.57;16.53;;;-8.80;99.90;;;;;;6096319;23;20015;-86
2022/12/18 07:30:41;;;;;;;35.70;16.53;;;-8.50;99.90;;;;;;6097198;23;20447;-86
2022/12/18 07:33:10;;;;;;;33.33;16.83;;;-8.70;99.90;;;;;;6096930;23;20026;-86
2022/12/18 07:36:01;;;;;;;37.97;17.30;;;-8.70;99.90;;;;;;6096397;23;20014;-86
2022/12/18 07:38:36;;;;;;;34.87;16.57;;;-6.70;99.90;;;;;;6095221;23;20022;-85
2022/12/18 07:41:31;;;;;;;34.07;16.43;;;-8.40;99.90;;;;;;6045860;23;20081;-85
2022/12/18 07:44:18;;;;;;;33.87;16.93;;;-8.10;99.90;;;;;;6008191;23;20020;-82
2022/12/18 07:46:44;;;;;;;34.27;16.67;;;-7.20;99.90;;;;;;6007807;23;20087;-82
2022/12/18 07:49:28;;;;;;;34.43;16.13;;;-6.90;99.90;;;;;;5984309;23;20511;-81
2022/12/18 07:52:09;;;;;;;;;;;-7.30;99.90;;;;;;6008523;23;20027;-82
2022/12/18 07:54:52;;;;;;;34.40;16.40;;;-8.80;99.90;;;;;;5984352;23;19922;-82
2022/12/18 07:57:18;;;;;;;34.22;16.65;;;-7.50;99.90;;;;;;6007279;23;20023;-82
2022/12/18 07:59:44;;;;;;;35.47;16.20;;;-7.90;99.90;;;;;;6009438;23;20480;-82
2022/12/18 08:02:34;;;;;;;34.90;15.60;;;-7.90;99.90;;;;;;5977673;23;20071;-82
2022/12/18 08:05:20;;;;;;;33.60;16.90;;;-6.90;99.90;;;;;;5984951;23;20121;-82
2022/12/18 08:07:48;;;;;;;31.47;15.50;;;-8.00;99.90;;;;;;6016806;23;20023;-82
2022/12/18 08:10:14;;;;;;;31.03;15.77;;;-7.80;99.90;;;;;;6066483;23;20027;-82
2022/12/18 08:12:55;;;;;;;35.30;16.80;;;-7.60;99.90;;;;;;6067201;23;20042;-82
2022/12/18 08:15:39;;;;;;;30.37;14.47;;;-7.70;99.90;;;;;;6065186;23;20015;-82
2022/12/18 08:18:05;;;;;;;25.55;14.10;;;-7.00;99.90;;;;;;6064316;23;20022;-82
2022/12/18 08:20:33;;;;;;;30.37;14.73;;;-5.30;99.90;;;;;;6067469;23;20058;-82
2022/12/18 08:23:14;;;;;;;31.03;14.40;;;-5.30;99.90;;;;;;6066539;23;20015;-82
2022/12/18 08:28:38;;;;;;;28.00;13.03;;;-7.20;99.90;;;;;;6066153;23;20035;-83
2022/12/18 08:31:41;;;;;;;28.23;13.90;;;-7.30;99.90;;;;;;6066177;23;20143;-83
2022/12/18 08:34:42;;;;;;;;;;;;;;;;;;;;;
2022/12/18 08:37:27;;;;;;;25.77;13.17;;;-7.00;99.90;;;;;;5895434;24;20028;-83
2022/12/18 08:40:14;;;;;;;24.57;12.77;;;-5.30;99.90;;;;;;5894018;24;20096;-84
2022/12/18 08:45:47;;;;;;;24.60;12.40;;;-5.80;99.90;;;;;;5972079;23;19918;-83
2022/12/18 08:48:38;;;;;;;24.63;12.07;;;-6.60;99.90;;;;;;6071840;23;20336;-83
2022/12/18 08:51:17;;;;;;;22.47;11.03;;;-5.20;99.90;;;;;;6066100;23;20026;-83
2022/12/18 08:54:03;;;;;;;24.03;12.43;;;-6.50;99.90;;;;;;6067843;23;20021;-83
2022/12/18 08:56:47;;;;;;;24.20;11.90;;;-6.50;99.90;;;;;;6056277;23;20027;-83
2022/12/18 08:59:12;;;;;;;22.80;11.50;;;-4.60;99.90;;;;;;6066643;23;20060;-83
2022/12/18 09:01:53;;;;;;;21.20;10.73;;;-6.40;99.90;;;;;;6089912;23;20447;-86
2022/12/18 09:04:19;;;;;;;21.40;10.83;;;-6.60;99.90;;;;;;6066338;23;20058;-83
2022/12/18 09:07:00;;;;;;;21.70;10.97;;;-5.50;99.90;;;;;;6087729;23;20332;-80
2022/12/18 09:09:44;;;;;;;21.53;10.37;;;-3.80;99.90;;;;;;6062834;23;20022;-81
2022/12/18 09:12:19;;;;;;;;;;;-4.90;99.90;;;;;;6067105;23;20027;-80
2022/12/18 09:15:05;;;;;;;19.30;9.00;;;-3.90;99.90;;;;;;6042489;23;19917;-81
2022/12/18 09:17:31;;;;;;;17.57;9.37;;;-4.30;99.90;;;;;;6050560;23;20472;-80
2022/12/18 09:20:12;;;;;;;24.37;9.90;;;-5.90;99.90;;;;;;6065601;23;20022;-81
2022/12/18 09:22:49;;;;;;;19.60;10.43;;;-5.60;99.90;;;;;;6067776;23;20026;-81
2022/12/18 09:25:32;;;;;;;20.77;10.03;;;-5.40;99.90;;;;;;6067984;23;20030;-81
2022/12/18 09:28:32;;;;;;;23.80;11.23;;;-5.60;99.90;;;;;;6066420;23;20030;-82
2022/12/18 09:30:58;;;;;;;19.53;9.67;;;-4.70;99.90;;;;;;6067116;23;20255;-81
2022/12/18 09:33:27;;;;;;;21.17;9.80;;;-5.40;99.90;;;;;;6068363;23;20328;-81
2022/12/18 09:36:03;;;;;;;20.37;9.90;;;-3.30;99.90;;;;;;6067868;23;20015;-81
2022/12/18 09:38:49;;;;;;;19.93;9.80;;;-5.20;99.90;;;;;;6067277;23;20531;-81
2022/12/18 09:41:39;;;;;;;18.27;9.17;;;-5.00;99.90;;;;;;6065781;23;20529;-81
2022/12/18 09:44:16;;;;;;;18.70;9.83;;;-5.00;99.90;;;;;;6067658;23;20023;-82
2022/12/18 09:47:09;;;;;;;18.30;9.93;;;-4.90;99.90;;;;;;6067454;23;20018;-81
2022/12/18 09:49:44;;;;;;;16.83;9.30;;;-4.80;99.90;;;;;;6058021;23;20019;-82
2022/12/18 09:52:32;;;;;;;19.97;9.83;;;-4.00;99.90;;;;;;6067374;23;20014;-83
2022/12/18 09:55:19;;;;;;;18.60;9.57;;;-4.70;99.90;;;;;;6065016;23;20023;-83
2022/12/18 09:57:54;;;;;;;20.50;9.60;;;-4.60;99.90;;;;;;6062437;23;20019;-82
2022/12/18 10:00:22;;;;;;;20.50;9.90;;;-4.50;99.90;;;;;;6068222;23;20018;-81
2022/12/18 10:02:53;;;;;;;20.90;10.40;;;-4.50;99.90;;;;;;6064936;23;20014;-82
2022/12/18 10:05:45;;;;;;;19.97;10.27;;;-4.40;99.90;;;;;;6065786;23;20038;-83
2022/12/18 10:08:48;;;;;;;18.07;9.33;;;-4.30;99.90;;;;;;6060892;23;20015;-83
2022/12/18 10:11:34;;;;;;;18.87;10.10;;;-4.20;99.90;;;;;;6065818;23;20018;-83
2022/12/18 10:14:19;;;;;;;18.35;9.35;;;-4.10;99.90;;;;;;6068321;23;20019;-84
2022/12/18 10:17:26;;;;;;;16.93;9.13;;;-4.10;99.90;;;;;;6065075;23;20023;-83
2022/12/18 10:21:01;;;;;;;19.00;9.50;;;-4.20;99.90;;;;;;6056032;23;20026;-83
2022/12/18 10:24:17;;;;;;;19.95;9.55;;;-4.40;99.90;;;;;;6065522;23;20023;-84
2022/12/18 10:26:49;;;;;;;18.97;8.90;;;-5.30;99.90;;;;;;6066372;23;20023;-81
2022/12/18 10:32:09;;;;;;;17.07;8.53;;;-4.00;99.90;;;;;;6069300;23;20089;-84
2022/12/18 10:34:38;;;;;;;17.23;8.93;;;-2.20;99.90;;;;;;6068838;23;20623;-82
2022/12/18 10:37:19;;;;;;;17.60;9.07;;;-2.90;99.90;;;;;;6068146;23;20448;-83
2022/12/18 10:39:46;;;;;;;17.07;9.20;;;-4.10;99.90;;;;;;6068825;23;20015;-83
2022/12/18 10:42:31;;;;;;;17.23;8.40;;;-3.10;99.90;;;;;;6068238;23;20504;-83
2022/12/18 10:45:24;;;;;;;15.43;8.40;;;-4.40;99.90;;;;;;6066145;23;20015;-83
2022/12/18 10:47:50;;;;;;;19.35;9.18;;;-4.00;99.90;;;;;;6071605;23;20025;-83
2022/12/18 10:50:37;;;;;;;17.97;8.20;;;-3.20;99.90;;;;;;6096841;23;20014;-83
2022/12/18 10:53:25;;;;;;;18.43;8.37;;;-3.90;99.90;;;;;;6094557;23;20018;-82
2022/12/18 10:56:12;;;;;;;17.03;8.03;;;-3.30;99.90;;;;;;6097540;23;20367;-83
2022/12/18 10:58:58;;;;;;;16.33;8.50;;;-1.30;99.90;;;;;;6094785;23;20351;-83
2022/12/18 11:02:01;;;;;;;15.83;7.97;;;-3.70;99.90;;;;;;6095261;23;20013;-82
2022/12/18 11:05:43;;;;;;;;;;;;;;;;;;;;;
2022/12/18 11:08:49;;;;;;;16.17;7.57;;;-1.80;99.90;;;;;;6002364;23;20019;-83
2022/12/18 11:11:31;;;;;;;15.27;8.07;;;-4.00;99.90;;;;;;6093409;23;20057;-83
2022/12/18 11:14:48;;;;;;;14.93;7.50;;;-2.90;99.90;;;;;;6064843;23;20030;-82
2022/12/18 11:17:35;;;;;;;15.53;8.13;;;-3.10;99.90;;;;;;6060050;23;20046;-82
2022/12/18 11:20:31;;;;;;;15.83;7.90;;;-3.10;99.90;;;;;;6069434;23;20107;-82
2022/12/18 11:23:12;;;;;;;16.60;7.50;;;-1.60;99.90;;;;;;6034474;23;20023;-83
2022/12/18 11:25:57;;;;;;;16.10;7.90;;;-1.40;99.90;;;;;;6028253;23;20106;-83
2022/12/18 11:28:59;;;;;;;16.23;7.97;;;-3.20;99.90;;;;;;6035484;23;20048;-83
2022/12/18 11:31:34;;;;;;;16.77;7.70;;;-3.00;99.90;;;;;;6042155;23;20011;-85
2022/12/18 11:34:49;;;;;;;15.70;7.73;;;-3.60;99.90;;;;;;6065811;23;20030;-85
2022/12/18 11:37:20;;;;;;;;;;;-2.60;99.90;;;;;;6042819;23;20033;-84
2022/12/18 11:39:56;;;;;;;14.80;7.73;;;-1.90;99.90;;;;;;6056582;23;19924;-85
2022/12/18 11:42:56;;;;;;;14.30;7.03;;;-3.20;99.90;;;;;;6080705;23;20022;-84
2022/12/18 11:45:52;;;;;;;16.07;8.03;;;-1.40;99.90;;;;;;6042418;23;20042;-82
2022/12/18 11:49:18;;;;;;;14.20;7.37;;;-1.20;99.90;;;;;;6067040;23;20059;-83
2022/12/18 12:11:32;;;;;;;13.87;7.20;;;-1.70;99.90;;;;;;6103103;23;20406;-82
2022/12/18 12:14:09;;;;;;;14.50;7.40;;;-2.30;99.90;;;;;;6097238;23;20022;-81
2022/12/18 12:16:49;;;;;;;15.67;7.70;;;-2.30;99.90;;;;;;6100213;23;20054;-81
2022/12/18 12:20:01;;;;;;;15.83;7.87;;;-2.50;99.90;;;;;;6079771;23;20355;-81
2022/12/18 12:23:15;;;;;;;;;;;;;;;;;;;;;
2022/12/18 12:26:16;;;;;;;16.30;7.77;;;-2.10;99.90;;;;;;6087333;23;20476;-81
2022/12/18 12:29:20;;;;;;;16.43;7.47;;;-2.80;99.90;;;;;;6095002;23;20014;-81
2022/12/18 12:31:51;;;;;;;15.03;7.57;;;-2.30;99.90;;;;;;6084817;23;20022;-81
2022/12/18 12:34:38;;;;;;;15.67;7.20;;;-2.90;99.90;;;;;;6094480;23;20025;-81
2022/12/18 12:38:02;;;;;;;16.07;8.10;;;-2.50;99.90;;;;;;6095583;23;20105;-81
2022/12/18 12:40:39;;;;;;;16.30;7.83;;;-1.30;99.90;;;;;;6017896;23;20022;-83
2022/12/18 12:43:53;;;;;;;13.70;7.10;;;-2.50;99.90;;;;;;6095160;23;20514;-82
2022/12/18 12:46:29;;;;;;;16.37;7.97;;;-0.20;99.90;;;;;;6096532;23;20014;-82
2022/12/18 12:52:55;;;;;;;15.97;8.00;;;-2.20;99.90;;;;;;5994529;23;20020;-82
2022/12/18 12:55:49;;;;;;;16.47;7.73;;;-2.00;99.90;;;;;;6012350;23;20018;-82
2022/12/18 12:58:40;;;;;;;18.05;8.00;;;-2.40;99.90;;;;;;6093436;23;20030;-82
2022/12/18 13:02:03;;;;;;;15.07;7.53;;;-2.10;99.90;;;;;;6096482;23;20018;-82
2022/12/18 13:04:56;;;;;;;15.87;8.03;;;-2.50;99.90;;;;;;6006920;23;20465;-81
2022/12/18 13:07:50;;;;;;;16.33;7.67;;;-1.60;99.90;;;;;;5984115;23;20071;-81
2022/12/18 13:10:41;;;;;;;16.70;8.18;;;-1.40;99.90;;;;;;6087611;23;20026;-81
2022/12/18 13:16:07;;;;;;;17.40;8.10;;;-1.90;99.90;;;;;;6094239;23;20030;-81
2022/12/18 13:18:53;;;;;;;14.80;7.90;;;-1.80;99.90;;;;;;6093643;23;20093;-82
2022/12/18 13:21:32;;;;;;;17.47;8.63;;;-2.30;99.90;;;;;;6094260;23;20014;-85
2022/12/18 13:24:43;;;;;;;16.83;7.90;;;-1.50;99.90;;;;;;6094767;23;20015;-85
2022/12/18 13:27:40;;;;;;;15.17;7.80;;;-1.90;99.90;;;;;;6094679;23;20022;-82
2022/12/18 13:30:31;;;;;;;16.40;8.30;;;-1.50;99.90;;;;;;6089899;23;20024;-82
2022/12/18 13:33:19;;;;;;;15.60;7.70;;;-2.20;99.90;;;;;;6053455;23;20103;-82
2022/12/18 13:35:49;;;;;;;15.57;7.83;;;-2.10;99.90;;;;;;6098227;23;20003;-83
2022/12/18 13:38:35;;;;;;;15.63;8.23;;;-2.20;99.90;;;;;;6094953;23;20071;-82
2022/12/18 13:41:33;;;;;;;;;;;;;;;;;;;;;
2022/12/18 13:44:46;;;;;;;16.50;8.27;;;-2.00;99.90;;;;;;5985903;23;20058;-82
2022/12/18 13:50:25;;;;;;;16.20;8.60;;;-2.80;99.90;;;;;;6096888;23;20355;-82
2022/12/18 13:52:52;;;;;;;16.23;8.80;;;-1.80;99.90;;;;;;6096017;23;20030;-82
2022/12/18 13:55:19;;;;;;;18.57;9.40;;;-2.30;99.90;;;;;;6096720;23;20014;-82
2022/12/18 13:58:04;;;;;;;17.03;8.60;;;-2.10;99.90;;;;;;6095802;23;20014;-82
2022/12/18 14:00:30;;;;;;;16.53;8.33;;;-1.80;99.90;;;;;;6098591;23;20448;-82
2022/12/18 14:06:29;;;;;;;16.37;8.67;;;-1.90;99.90;;;;;;6097867;23;20026;-83
2022/12/18 14:09:04;;;;;;;16.93;9.13;;;-1.50;99.90;;;;;;6097352;23;20019;-83
2022/12/18 14:11:30;;;;;;;17.07;9.07;;;-2.50;99.90;;;;;;6096389;23;20383;-83
2022/12/18 14:13:56;;;;;;;19.03;9.50;;;-3.20;99.90;;;;;;6095982;23;20070;-83
2022/12/18 14:16:34;;;;;;;17.13;9.30;;;-2.00;99.90;;;;;;6095012;23;20018;-83
2022/12/18 14:19:00;;;;;;;16.90;8.70;;;-1.20;99.90;;;;;;6096176;23;20015;-83
2022/12/18 14:21:45;;;;;;;18.47;9.80;;;-1.90;99.90;;;;;;6097606;23;20061;-83
2022/12/18 14:24:21;;;;;;;17.50;9.03;;;-3.20;99.90;;;;;;6094965;23;20014;-84
2022/12/18 14:27:32;;;;;;;17.57;9.63;;;-0.20;99.90;;;;;;6095099;23;20049;-84
2022/12/18 14:29:58;;;;;;;18.80;9.30;;;-2.20;99.90;;;;;;6094354;23;20019;-85
2022/12/18 14:33:15;;;;;;;18.37;9.77;;;-2.60;99.90;;;;;;6089708;23;20053;-84
2022/12/18 14:36:00;;;;;;;18.13;9.60;;;-2.00;99.90;;;;;;6095718;23;20029;-84
2022/12/18 14:38:30;;;;;;;17.73;9.37;;;-2.00;99.90;;;;;;6095310;23;20029;-84
2022/12/18 14:41:14;;;;;;;16.83;8.80;;;-2.50;99.90;;;;;;6095688;23;20105;-84
2022/12/18 14:43:42;;;;;;;17.80;9.60;;;-1.40;99.90;;;;;;6094835;23;20132;-87
2022/12/18 14:46:43;;;;;;;19.67;9.27;;;-0.50;99.90;;;;;;6095280;23;20101;-85
2022/12/18 14:52:16;;;;;;;17.23;9.37;;;-2.60;99.90;;;;;;6101996;23;20107;31
2022/12/18 14:55:02;;;;;;;16.47;8.83;;;-2.50;99.90;;;;;;6122571;23;20096;-83
2022/12/18 14:57:43;;;;;;;18.10;9.83;;;-2.40;99.90;;;;;;6097618;23;20424;-83
2022/12/18 15:00:19;;;;;;;20.10;10.10;;;-1.20;99.90;;;;;;6125392;23;20021;-83
2022/12/18 15:02:58;;;;;;;20.43;9.97;;;-2.50;99.90;;;;;;6099130;23;20016;-83
2022/12/18 15:05:42;;;;;;;18.70;9.80;;;-2.90;99.90;;;;;;6097580;23;20111;-84
2022/12/18 15:08:37;;;;;;;17.63;9.75;;;-2.60;99.90;;;;;;6109844;23;20045;-83
2022/12/18 15:11:03;;;;;;;19.83;9.43;;;-2.10;99.90;;;;;;6071049;23;20022;-83
2022/12/18 15:13:29;;;;;;;16.47;9.43;;;-2.50;99.90;;;;;;6068022;23;20403;-82
2022/12/18 15:16:00;;;;;;;17.57;9.60;;;-2.70;99.90;;;;;;6041922;23;20459;-83
2022/12/18 15:18:47;;;;;;;17.87;9.67;;;-2.70;99.90;;;;;;6040301;23;20795;-82
2022/12/18 15:21:20;;;;;;;18.57;9.33;;;-2.20;99.90;;;;;;6069035;23;20014;-82
2022/12/18 15:23:53;;;;;;;18.70;10.05;;;-2.80;99.90;;;;;;6041934;23;20019;-84
2022/12/18 15:26:37;;;;;;;19.70;9.97;;;-4.30;99.90;;;;;;6039752;23;20057;-83
2022/12/18 15:29:35;;;;;;;19.55;9.82;;;-1.10;99.90;;;;;;6090709;23;20014;-83
2022/12/18 15:34:36;;;;;;;18.30;9.67;;;-2.50;99.90;;;;;;6126980;23;20030;-83
2022/12/18 15:37:08;;;;;;;18.60;9.33;;;-1.90;99.90;;;;;;6124817;23;20025;-83
2022/12/18 15:39:39;;;;;;;19.30;9.23;;;-2.30;99.90;;;;;;6097584;23;20017;-83